Terminal Aerodrome Forecast
Issued by NWS Corpus Christi, TX

Current Version | Previous Version | Text Only | Print | Product List | Glossary On
Versions: 1 2 3 4 5 6 7 8 9 10 11 12 13 14
000
FTUS44 KCRP 301120
TAFCRP
TAF
KCRP 301120Z 3012/3112 16005KT P6SM SCT015
     FM301500 15012KT P6SM SCT025
     FM301800 12014G19KT P6SM SCT035
     FM310200 13005KT P6SM SCT025
     FM310800 VRB03KT P6SM BKN015=

USA.gov is the U.S. government's official web portal to all federal, state and local government web resources and services.